createdAt,value
2022-08-16T00:02:12.805Z,99575.56
2022-08-16T00:05:16.730Z,99578.41
2022-08-16T00:08:36.811Z,99571.47
2022-08-16T00:11:41.140Z,99584.84
2022-08-16T00:14:45.036Z,99578.78
2022-08-16T00:17:57.065Z,99589.16
2022-08-16T00:21:00.614Z,99599.81
2022-08-16T00:24:06.281Z,99590.78
2022-08-16T00:27:14.236Z,99603.31
2022-08-16T00:30:28.734Z,99605.53
2022-08-16T00:33:31.874Z,99603.78
2022-08-16T00:36:34.491Z,99608.50
2022-08-16T00:39:36.979Z,99609.97
2022-08-16T00:42:41.573Z,99613.53
2022-08-16T00:45:57.929Z,99624.38
2022-08-16T00:49:02.928Z,99634.84
2022-08-16T00:52:06.217Z,99630.13
2022-08-16T00:55:37.973Z,99648.00
2022-08-16T00:58:44.379Z,99649.53
2022-08-16T01:01:48.152Z,99652.81
2022-08-16T01:05:10.434Z,99666.91
2022-08-16T01:08:35.737Z,99661.47
2022-08-16T01:11:53.695Z,99647.75
2022-08-16T01:15:00.260Z,99663.09
2022-08-16T01:18:08.349Z,99659.78
2022-08-16T01:21:39.772Z,99673.66
2022-08-16T01:24:54.054Z,99665.31
2022-08-16T01:28:01.943Z,99672.03
2022-08-16T01:31:05.348Z,99678.31
2022-08-16T01:34:07.926Z,99682.22
2022-08-16T01:37:25.937Z,99685.66
2022-08-16T01:40:31.443Z,99665.06
2022-08-16T01:43:36.626Z,99669.59
2022-08-16T01:46:43.132Z,99678.09
2022-08-16T01:50:40.920Z,99671.34
2022-08-16T01:53:08.006Z,99669.38
2022-08-16T01:56:23.112Z,99664.19
2022-08-16T01:59:26.397Z,99660.19
2022-08-16T02:02:30.209Z,99674.13
2022-08-16T02:05:32.899Z,99654.81
2022-08-16T02:08:37.336Z,99682.16
2022-08-16T02:11:48.572Z,99669.31
2022-08-16T02:14:56.187Z,99681.69
2022-08-16T02:18:01.816Z,99681.94
2022-08-16T02:21:06.068Z,99664.03
2022-08-16T02:24:31.332Z,99656.50
2022-08-16T02:27:32.414Z,99664.84
2022-08-16T02:30:36.667Z,99674.16
2022-08-16T02:33:50.027Z,99669.91
2022-08-16T02:36:53.071Z,99666.63
2022-08-16T02:39:57.624Z,99679.75
2022-08-16T02:43:01.581Z,99680.38
2022-08-16T02:46:07.405Z,99664.25
2022-08-16T02:49:11.005Z,99680.25
2022-08-16T02:52:17.193Z,99679.97
2022-08-16T02:55:41.266Z,99672.66
2022-08-16T02:58:45.917Z,99672.81
2022-08-16T03:01:49.647Z,99666.53
2022-08-16T03:04:52.784Z,99658.09
2022-08-16T03:07:56.589Z,99658.69
2022-08-16T03:10:59.461Z,99676.13
2022-08-16T03:14:07.453Z,99681.56
2022-08-16T03:17:10.917Z,99667.03
2022-08-16T03:20:18.329Z,99690.22
2022-08-16T03:23:20.841Z,99688.75
2022-08-16T03:26:25.731Z,99682.41
2022-08-16T03:29:32.018Z,99661.72
2022-08-16T03:32:34.510Z,99672.88
2022-08-16T03:35:40.057Z,99680.50
2022-08-16T03:38:42.795Z,99682.09
2022-08-16T03:41:50.280Z,99666.19
2022-08-16T03:45:03.474Z,99679.72
2022-08-16T03:48:07.605Z,99666.88
2022-08-16T03:51:13.208Z,99681.88
2022-08-16T03:54:15.754Z,99687.53
2022-08-16T03:57:20.293Z,99678.00
2022-08-16T04:00:36.134Z,99679.69
2022-08-16T04:03:44.255Z,99688.22
2022-08-16T04:06:46.771Z,99685.81
2022-08-16T04:09:49.476Z,99683.16
2022-08-16T04:12:53.849Z,99672.94
2022-08-16T04:15:59.383Z,99692.72
2022-08-16T04:19:04.556Z,99705.75
2022-08-16T04:22:08.736Z,99693.69
2022-08-16T04:25:13.688Z,99708.38
2022-08-16T04:28:54.531Z,99709.56
2022-08-16T04:31:43.740Z,99720.25
2022-08-16T04:34:46.372Z,99694.09
2022-08-16T04:37:53.783Z,99697.88
2022-08-16T04:40:58.046Z,99697.25
2022-08-16T04:44:00.573Z,99701.66
2022-08-16T04:47:21.767Z,99718.31
2022-08-16T04:50:29.729Z,99724.44
2022-08-16T04:53:33.194Z,99730.69
2022-08-16T04:56:36.317Z,99734.00
2022-08-16T04:59:48.653Z,99730.31
2022-08-16T05:02:58.836Z,99742.66
2022-08-16T05:06:05.104Z,99745.25
2022-08-16T05:09:09.482Z,99732.94
2022-08-16T05:12:18.080Z,99743.31
2022-08-16T05:15:25.244Z,99732.22
2022-08-16T05:18:29.706Z,99742.03
2022-08-16T05:21:35.989Z,99732.50
2022-08-16T05:24:41.076Z,99736.72
2022-08-16T05:27:46.441Z,99745.53
2022-08-16T05:30:51.115Z,99748.53
2022-08-16T05:33:54.961Z,99749.84
2022-08-16T05:36:58.820Z,99747.97
2022-08-16T05:40:01.411Z,99745.47
2022-08-16T05:43:12.147Z,99748.44
2022-08-16T05:46:28.848Z,99753.22
2022-08-16T05:49:39.236Z,99755.25
2022-08-16T05:52:44.929Z,99755.66
2022-08-16T05:55:47.609Z,99766.97
2022-08-16T05:58:50.226Z,99755.19
2022-08-16T06:01:53.927Z,99761.91
2022-08-16T06:04:57.876Z,99756.66
2022-08-16T06:08:00.676Z,99761.00
2022-08-16T06:11:10.269Z,99762.34
2022-08-16T06:14:14.250Z,99760.88
2022-08-16T06:17:17.466Z,99764.34
2022-08-16T06:20:35.805Z,99777.78
2022-08-16T06:23:39.188Z,99780.16
2022-08-16T06:26:57.405Z,99779.41
2022-08-16T06:30:00.611Z,99778.19
2022-08-16T06:33:05.661Z,99784.00
2022-08-16T06:36:11.638Z,99778.31
2022-08-16T06:39:16.372Z,99780.72
2022-08-16T06:42:19.442Z,99793.69
2022-08-16T06:45:24.150Z,99807.66
2022-08-16T06:48:32.158Z,99805.94
2022-08-16T06:51:45.221Z,99809.03
2022-08-16T06:54:51.065Z,99810.03
2022-08-16T06:57:55.020Z,99804.03
2022-08-16T07:00:58.131Z,99810.91
2022-08-16T07:04:02.902Z,99810.00
2022-08-16T07:07:14.985Z,99809.44
2022-08-16T07:10:17.934Z,99816.16
2022-08-16T07:13:43.949Z,99819.50
2022-08-16T07:16:43.682Z,99826.41
2022-08-16T07:20:29.358Z,99834.00
2022-08-16T07:23:13.248Z,99852.06
2022-08-16T07:26:25.487Z,99852.94
2022-08-16T07:29:31.721Z,99850.19
2022-08-16T07:32:34.523Z,99858.13
2022-08-16T07:35:44.270Z,99859.78
2022-08-16T07:38:49.262Z,99859.53
2022-08-16T07:41:52.568Z,99865.34
2022-08-16T07:44:57.175Z,99868.16
2022-08-16T07:47:59.753Z,99866.56
2022-08-16T07:51:14.609Z,99872.59
2022-08-16T07:54:20.864Z,99860.88
2022-08-16T07:57:24.483Z,99864.25
2022-08-16T08:00:27.146Z,99869.72
2022-08-16T08:03:35.708Z,99868.09
2022-08-16T08:06:42.295Z,99868.16
2022-08-16T08:09:46.226Z,99874.25
2022-08-16T08:12:49.289Z,99871.81
2022-08-16T08:15:53.407Z,99883.44
2022-08-16T08:19:00.890Z,99885.13
2022-08-16T08:22:06.304Z,99890.47
2022-08-16T08:25:13.085Z,99893.59
2022-08-16T08:28:20.065Z,99896.44
2022-08-16T08:31:22.588Z,99896.03
2022-08-16T08:34:25.011Z,99894.75
2022-08-16T08:37:27.515Z,99896.34
2022-08-16T08:40:51.409Z,99898.50
2022-08-16T08:43:53.901Z,99895.16
2022-08-16T08:47:00.057Z,99897.78
2022-08-16T08:50:04.458Z,99909.09
2022-08-16T08:53:08.029Z,99912.63
2022-08-16T08:56:23.199Z,99902.13
2022-08-16T08:59:28.270Z,99900.81
2022-08-16T09:02:31.004Z,99898.28
2022-08-16T09:05:36.047Z,99905.38
2022-08-16T09:08:39.852Z,99894.53
2022-08-16T09:12:03.987Z,99901.00
2022-08-16T09:15:13.638Z,99904.31
2022-08-16T09:18:26.940Z,99901.19
2022-08-16T09:21:37.953Z,99900.69
2022-08-16T09:24:52.947Z,99905.47
2022-08-16T09:28:02.295Z,99909.84
2022-08-16T09:31:11.421Z,99913.78
2022-08-16T09:34:19.137Z,99911.97
2022-08-16T09:37:22.053Z,99910.03
2022-08-16T09:40:42.838Z,99904.78
2022-08-16T09:43:58.263Z,99906.38
2022-08-16T09:47:01.460Z,99910.13
2022-08-16T09:50:13.281Z,99910.75
2022-08-16T09:53:26.765Z,99909.19
2022-08-16T09:56:32.756Z,99923.03
2022-08-16T09:59:38.506Z,99924.50
2022-08-16T10:02:44.115Z,99920.59
2022-08-16T10:05:48.016Z,99916.03
2022-08-16T10:08:52.648Z,99920.34
2022-08-16T10:12:34.848Z,99916.75
2022-08-16T10:15:55.732Z,99907.94
2022-08-16T10:19:06.316Z,99906.56
2022-08-16T10:22:12.537Z,99902.44
2022-08-16T10:27:16.723Z,99909.31
2022-08-16T10:28:39.745Z,99908.78
2022-08-16T10:31:46.300Z,99914.06
2022-08-16T10:34:51.377Z,99915.66
2022-08-16T10:37:55.030Z,99918.31
2022-08-16T10:40:57.642Z,99914.06
2022-08-16T10:44:02.783Z,99922.28
2022-08-16T10:47:07.288Z,99917.06
2022-08-16T10:50:19.844Z,99916.50
2022-08-16T10:53:22.723Z,99917.63
2022-08-16T10:56:52.452Z,99925.84
2022-08-16T10:59:53.267Z,99938.47
2022-08-16T11:03:04.876Z,99936.28
2022-08-16T11:06:09.566Z,99919.28
2022-08-16T11:09:25.271Z,99920.38
2022-08-16T11:12:28.493Z,99917.44
2022-08-16T11:15:32.230Z,99919.25
2022-08-16T11:19:04.429Z,99922.03
2022-08-16T11:22:38.623Z,99923.41
2022-08-16T11:32:11.824Z,99926.16
2022-08-16T11:35:43.408Z,99932.78
2022-08-16T11:38:51.354Z,99925.66
2022-08-16T11:41:59.384Z,99931.53
2022-08-16T11:45:01.920Z,99929.25
2022-08-16T11:48:05.921Z,99935.28
2022-08-16T11:51:09.881Z,99930.41
2022-08-16T11:54:20.979Z,99923.78
2022-08-16T11:57:25.077Z,99927.41
2022-08-16T12:00:33.966Z,99925.56
2022-08-16T12:03:53.443Z,99911.47
2022-08-16T12:06:57.318Z,99904.63
2022-08-16T12:09:59.740Z,99896.34
2022-08-16T12:13:03.792Z,99913.47
2022-08-16T12:16:08.209Z,99915.84
2022-08-16T12:19:13.846Z,99923.75
2022-08-16T12:22:18.673Z,99930.25
2022-08-16T12:25:24.598Z,99922.41
2022-08-16T12:28:54.290Z,99917.75
2022-08-16T12:32:01.013Z,99917.59
2022-08-16T12:35:16.067Z,99927.28
2022-08-16T12:38:41.223Z,99913.91
2022-08-16T12:41:45.715Z,99901.56
2022-08-16T12:44:49.502Z,99901.16
2022-08-16T12:48:32.587Z,99896.66
2022-08-16T12:51:59.450Z,99908.16
2022-08-16T12:55:01.933Z,99900.84
2022-08-16T12:58:06.065Z,99904.13
2022-08-16T13:01:17.210Z,99905.69
2022-08-16T13:04:20.404Z,99901.28
2022-08-16T13:07:27.268Z,99915.66
2022-08-16T13:10:37.835Z,99919.88
2022-08-16T13:13:41.754Z,99917.09
2022-08-16T13:16:44.223Z,99915.38
2022-08-16T13:23:12.810Z,99894.84
2022-08-16T13:26:20.862Z,99890.19
2022-08-16T13:29:23.328Z,99887.91
2022-08-16T13:32:40.463Z,99881.28
2022-08-16T13:35:45.182Z,99892.41
2022-08-16T13:38:47.623Z,99888.47
2022-08-16T13:41:54.510Z,99885.97
2022-08-16T13:44:58.473Z,99889.41
2022-08-16T13:48:02.365Z,99903.94
2022-08-16T13:51:07.444Z,99885.06
2022-08-16T13:54:09.977Z,99889.63
2022-08-16T13:57:14.370Z,99881.31
2022-08-16T14:00:20.892Z,99876.00
2022-08-16T14:03:23.908Z,99875.84
2022-08-16T14:06:26.501Z,99874.25
2022-08-16T14:09:32.353Z,99877.19
2022-08-16T14:12:38.152Z,99889.00
2022-08-16T14:15:41.892Z,99899.47
2022-08-16T14:18:44.547Z,99892.19
2022-08-16T14:21:55.939Z,99901.34
2022-08-16T14:24:59.970Z,99896.59
2022-08-16T14:28:04.655Z,99896.25
2022-08-16T14:31:12.090Z,99891.66
2022-08-16T14:34:14.661Z,99902.06
2022-08-16T14:37:19.677Z,99904.72
2022-08-16T14:40:29.112Z,99899.84
2022-08-16T14:43:33.085Z,99893.94
2022-08-16T14:46:36.972Z,99892.41
2022-08-16T14:49:41.533Z,99900.13
2022-08-16T14:52:57.582Z,99879.91
2022-08-16T14:56:00.044Z,99890.63
2022-08-16T14:59:03.945Z,99881.59
2022-08-16T15:02:15.092Z,99882.78
2022-08-16T15:05:37.803Z,99884.72
2022-08-16T15:08:40.577Z,99897.03
2022-08-16T15:11:45.200Z,99893.56
2022-08-16T15:14:52.049Z,99894.00
2022-08-16T15:17:56.505Z,99895.41
2022-08-16T15:21:00.632Z,99897.56
2022-08-16T15:24:03.453Z,99886.78
2022-08-16T15:27:08.130Z,99894.78
2022-08-16T15:30:56.573Z,99892.00
2022-08-16T15:33:48.555Z,99889.63
2022-08-16T15:36:53.432Z,99888.25
2022-08-16T15:39:58.018Z,99882.16
2022-08-16T15:43:00.888Z,99889.16
2022-08-16T15:46:55.687Z,99892.97
2022-08-16T15:49:46.901Z,99898.56
2022-08-16T15:52:57.992Z,99897.22
2022-08-16T15:56:02.123Z,99897.06
2022-08-16T15:59:08.606Z,99900.19
2022-08-16T16:02:13.355Z,99897.34
2022-08-16T16:05:19.052Z,99896.19
2022-08-16T16:08:25.154Z,99892.16
2022-08-16T16:11:27.790Z,99901.47
2022-08-16T16:14:33.704Z,99903.97
2022-08-16T16:17:37.517Z,99897.81
2022-08-16T16:20:43.717Z,99899.16
2022-08-16T16:23:55.164Z,99895.59
2022-08-16T16:27:01.407Z,99893.09
2022-08-16T16:30:33.357Z,99895.34
2022-08-16T16:33:33.874Z,99887.16
2022-08-16T16:36:39.901Z,99893.56
2022-08-16T16:39:46.139Z,99899.47
2022-08-16T16:42:51.133Z,99899.34
2022-08-16T16:45:54.894Z,99895.31
2022-08-16T16:48:59.927Z,99901.16
2022-08-16T16:52:06.587Z,99891.50
2022-08-16T16:55:10.834Z,99900.59
2022-08-16T16:58:36.494Z,99902.84
2022-08-16T17:01:59.344Z,99911.84
2022-08-16T17:05:08.487Z,99915.13
2022-08-16T17:08:11.213Z,99922.47
2022-08-16T17:11:16.084Z,99928.75
2022-08-16T17:14:33.458Z,99928.63
2022-08-16T17:17:59.693Z,99923.25
2022-08-16T17:21:00.778Z,99930.94
2022-08-16T17:24:03.812Z,99932.91
2022-08-16T17:27:33.287Z,99942.63
2022-08-16T17:30:45.597Z,99944.16
2022-08-16T17:33:54.812Z,99938.47
2022-08-16T17:36:59.421Z,99947.69
2022-08-16T17:40:25.605Z,99952.91
2022-08-16T17:43:27.446Z,99947.03
2022-08-16T17:46:51.633Z,99953.78
2022-08-16T17:49:52.467Z,99953.56
2022-08-16T17:52:57.266Z,99942.41
2022-08-16T17:56:00.329Z,99937.59
2022-08-16T17:59:02.811Z,99943.56
2022-08-16T18:02:41.024Z,99947.06
2022-08-16T18:05:30.261Z,99936.78
2022-08-16T18:08:34.293Z,99946.88
2022-08-16T18:11:41.037Z,99945.94
2022-08-16T18:14:51.087Z,99953.53
2022-08-16T18:17:54.992Z,99954.75
2022-08-16T18:21:14.965Z,99960.81
2022-08-16T18:24:19.797Z,99955.09
2022-08-16T18:27:26.214Z,99961.06
2022-08-16T18:30:29.828Z,99967.91
2022-08-16T18:33:41.313Z,99964.81
2022-08-16T18:36:46.366Z,99977.84
2022-08-16T18:39:50.375Z,99974.16
2022-08-16T18:42:55.936Z,99983.38
2022-08-16T18:45:58.482Z,99978.16
2022-08-16T18:49:00.926Z,99983.75
2022-08-16T18:52:04.209Z,99981.38
2022-08-16T18:55:13.919Z,99985.59
2022-08-16T18:58:17.370Z,99993.31
2022-08-16T19:01:19.894Z,99995.25
2022-08-16T19:04:55.531Z,99993.81
2022-08-16T19:07:44.931Z,99999.75
2022-08-16T19:10:50.980Z,100002.00
2022-08-16T19:13:53.504Z,99996.03
2022-08-16T19:16:56.692Z,100010.72
2022-08-16T19:19:59.132Z,100005.50
2022-08-16T19:23:05.102Z,100002.69
2022-08-16T19:26:16.164Z,100007.59
2022-08-16T19:29:28.129Z,100013.66
2022-08-16T19:32:30.593Z,100018.03
2022-08-16T19:35:34.088Z,100009.28
2022-08-16T19:38:36.876Z,100005.22
2022-08-16T19:41:43.351Z,100009.25
2022-08-16T19:44:48.714Z,100009.91
2022-08-16T19:47:56.335Z,100010.41
2022-08-16T19:50:59.220Z,100016.13
2022-08-16T19:54:01.650Z,100026.38
2022-08-16T19:57:05.669Z,100016.75
2022-08-16T20:00:14.698Z,100022.63
2022-08-16T20:03:21.945Z,100021.72
2022-08-16T20:06:38.034Z,100018.81
2022-08-16T20:09:41.789Z,100024.16
2022-08-16T20:12:58.493Z,100024.81
2022-08-16T20:16:05.983Z,100027.63
2022-08-16T20:19:14.484Z,100024.19
2022-08-16T20:22:49.722Z,100017.38
2022-08-16T20:25:49.890Z,100026.22
2022-08-16T20:28:55.419Z,100021.00
2022-08-16T20:31:57.993Z,100024.97
2022-08-16T20:35:02.918Z,100024.56
2022-08-16T20:38:06.709Z,100023.78
2022-08-16T20:41:09.322Z,100023.19
2022-08-16T20:44:13.845Z,100023.78
2022-08-16T20:47:16.383Z,100025.38
2022-08-16T20:50:18.968Z,100024.50
2022-08-16T20:53:21.557Z,100030.22
2022-08-16T20:56:24.284Z,100021.47
2022-08-16T20:59:28.432Z,100036.41
2022-08-16T21:02:30.912Z,100034.06
2022-08-16T21:05:34.126Z,100032.94
2022-08-16T21:08:52.337Z,100038.09
2022-08-16T21:11:57.562Z,100039.75
2022-08-16T21:15:06.295Z,100037.13
2022-08-16T21:18:08.813Z,100039.16
2022-08-16T21:21:12.031Z,100041.91
2022-08-16T21:24:15.185Z,100019.97
2022-08-16T21:27:18.549Z,100041.34
2022-08-16T21:30:32.374Z,100030.75
2022-08-16T21:33:35.159Z,100025.13
2022-08-16T21:36:38.096Z,100034.59
2022-08-16T21:39:40.989Z,100039.03
2022-08-16T21:42:44.110Z,100047.19
2022-08-16T21:45:48.767Z,100047.59
2022-08-16T21:48:57.548Z,100042.91
2022-08-16T21:52:00.088Z,100037.06
2022-08-16T21:55:02.546Z,100041.13
2022-08-16T21:58:05.479Z,100039.84
2022-08-16T22:01:09.351Z,100041.09
2022-08-16T22:04:37.014Z,100040.69
2022-08-16T22:07:37.220Z,100032.94
2022-08-16T22:11:06.791Z,100044.63
2022-08-16T22:14:05.782Z,100057.31
2022-08-16T22:17:09.590Z,100045.38
2022-08-16T22:20:12.408Z,100053.56
2022-08-16T22:23:18.963Z,100057.81
2022-08-16T22:26:30.204Z,100063.38
2022-08-16T22:29:33.963Z,100068.88
2022-08-16T22:32:40.588Z,100073.34
2022-08-16T22:35:44.036Z,100070.16
2022-08-16T22:38:55.005Z,100070.59
2022-08-16T22:41:59.348Z,100067.91
2022-08-16T22:45:06.548Z,100068.63
2022-08-16T22:48:10.563Z,100066.53
2022-08-16T22:51:13.994Z,100080.19
2022-08-16T22:54:43.892Z,100077.50
2022-08-16T22:57:39.241Z,100080.31
2022-08-16T23:00:44.004Z,100088.59
2022-08-16T23:03:47.934Z,100092.25
2022-08-16T23:06:50.370Z,100080.06
2022-08-16T23:09:53.621Z,100086.09
2022-08-16T23:12:58.604Z,100077.94
2022-08-16T23:16:10.622Z,100079.19
2022-08-16T23:19:17.327Z,100075.91
2022-08-16T23:22:19.775Z,100073.47
2022-08-16T23:25:30.215Z,100072.75
2022-08-16T23:28:32.979Z,100078.41
2022-08-16T23:31:35.575Z,100075.28
2022-08-16T23:34:40.050Z,100071.53
2022-08-16T23:37:42.534Z,100068.13
2022-08-16T23:40:45.447Z,100070.78
2022-08-16T23:43:47.925Z,100063.88
2022-08-16T23:46:50.478Z,100060.94
2022-08-16T23:50:01.281Z,100061.25
2022-08-16T23:53:07.514Z,100057.78
2022-08-16T23:56:12.679Z,100057.50
2022-08-16T23:59:15.907Z,100056.53
